Aplicació Alertes

Dades de l'estació automàtica Seròs

?
?
Resum diari 23:00 TU
Dades diàries de l'estació meteorològica
Temperatura mitjana 2.9 °C
Temperatura màxima 16.4 °C 14:43 TU
Temperatura mínima -4.2 °C 5:30 TU
Humitat relativa mitjana 84%
Precipitació acumulada 0.0 mm
Ratxa màxima del vent (2 m) 7.9 km/h - 99º 14:18 TU
Irradiació solar global 9.1 MJ/m2

El tram horari està expressat en Temps Universal (TU). Cal sumar una hora en horari d'hivern i dues en horari d'estiu per passar a l'hora oficial.

Seròs

Metadades estació meteorol´gica
Municipi Seròs
Comarca Segrià
Altitud 89 m
Data alta 15.12.2011
Estat actual Operativa
Dades de període
Període
TU
TM
°C
TX
°C
TN
°C
HRM
%
PPT
mm
VVM (2 m)
km/h
DVM (2 m)
graus
VVX (2 m)
km/h
RS
W/m2
00:00 - 00:30 -2.1 -1.5 -2.5 96 0.0 0.0 55 1.8 0
00:30 - 01:00 -2.3 -1.6 -2.9 96 0.0 0.4 16 1.8 0
01:00 - 01:30 -2.2 -1.8 -2.6 97 0.0 0.4 14 2.2 0
01:30 - 02:00 -2.3 -1.8 -2.6 97 0.0 0.4 43 2.5 0
02:00 - 02:30 -2.8 -2.0 -3.4 97 0.0 0.0 0 0.0 0
02:30 - 03:00 -3.2 -2.2 -3.6 97 0.0 0.4 80 2.5 0
03:00 - 03:30 -3.2 -2.1 -3.7 97 0.0 0.4 18 2.5 0
03:30 - 04:00 -3.0 -2.2 -3.6 97 0.0 0.0 32 1.8 0
04:00 - 04:30 -3.9 -3.5 -4.2 97 0.0 0.4 24 1.8 0
04:30 - 05:00 -3.6 -3.5 -3.7 97 0.0 0.7 25 2.9 0
05:00 - 05:30 -3.8 -3.5 -4.1 98 0.0 0.0 22 1.4 0
05:30 - 06:00 -3.4 -2.6 -4.2 98 0.0 0.0 25 1.8 0
06:00 - 06:30 -2.3 -2.1 -2.6 98 0.0 2.2 30 5.0 0
06:30 - 07:00 -1.9 -1.8 -2.1 98 0.0 1.8 46 4.3 2
07:00 - 07:30 -1.7 -1.5 -1.8 98 0.0 0.7 37 3.2 12
07:30 - 08:00 -1.3 -1.2 -1.5 98 0.0 1.8 7 5.0 29
08:00 - 08:30 -0.9 -0.7 -1.1 98 0.0 2.2 23 4.7 66
08:30 - 09:00 -0.4 -0.1 -0.6 99 0.0 2.9 42 5.8 92
09:00 - 09:30 0.3 0.7 0.0 99 0.0 2.5 22 5.8 136
09:30 - 10:00 1.2 2.0 0.6 99 0.0 2.5 64 5.0 212
10:00 - 10:30 3.2 4.9 2.1 98 0.0 3.2 38 6.8 393
10:30 - 11:00 6.7 8.4 4.9 81 0.0 2.2 58 6.1 473
11:00 - 11:30 9.3 10.2 8.4 69 0.0 1.8 58 7.2 496
11:30 - 12:00 11.0 11.5 10.3 63 0.0 1.8 164 5.0 507
12:00 - 12:30 12.3 13.0 11.6 59 0.0 2.2 295 7.2 501
12:30 - 13:00 13.5 13.9 13.0 54 0.0 3.2 286 7.6 480
13:00 - 13:30 14.2 15.0 13.8 52 0.0 3.2 325 7.6 444
13:30 - 14:00 14.9 15.3 14.4 49 0.0 2.2 51 6.8 390
14:00 - 14:30 15.5 15.8 14.9 45 0.0 2.5 94 7.9 315
14:30 - 15:00 15.6 16.4 15.4 45 0.0 1.8 7 6.8 256
15:00 - 15:30 15.7 16.1 15.5 43 0.0 1.8 55 6.8 174
15:30 - 16:00 15.1 15.7 14.3 45 0.0 2.5 66 5.0 95
16:00 - 16:30 13.3 14.2 11.9 52 0.0 1.8 57 5.0 30
16:30 - 17:00 9.5 11.7 7.0 64 0.0 1.4 48 2.9 0
17:00 - 17:30 5.6 6.8 4.9 80 0.0 0.4 342 2.5 0
17:30 - 18:00 4.1 5.0 3.2 84 0.0 0.4 17 2.2 0
18:00 - 18:30 2.8 3.6 2.3 89 0.0 0.0 36 1.8 0
18:30 - 19:00 2.2 2.5 1.6 90 0.0 0.4 50 2.9 0
19:00 - 19:30 1.4 2.6 1.0 91 0.0 0.4 24 2.9 0
19:30 - 20:00 0.5 1.3 -0.1 93 0.0 0.4 191 2.2 0
20:00 - 20:30 -0.3 0.0 -0.7 94 0.0 0.0 11 1.8 0
20:30 - 21:00 -0.4 -0.2 -0.9 95 0.0 0.4 22 2.9 0
21:00 - 21:30 -1.0 -0.3 -1.4 96 0.0 0.0 12 2.2 0
21:30 - 22:00 -1.4 -1.2 -1.9 96 0.0 0.0 12 2.2 0
22:00 - 22:30 -2.0 -1.7 -2.2 96 0.0 0.0 357 1.8 0
22:30 - 23:00 -1.8 -1.4 -2.4 96 0.0 0.4 49 1.4 0
23:00 - 23:30 -1.6 -1.4 -1.9 97 0.0 1.4 22 3.6 0

Les dades en taronja només han passat un control de qualitat automàtic. Resta pendent la seva validació definitiva.